createdAt,value
2018-01-13T00:02:19.563Z,0.40
2018-01-13T00:04:47.065Z,0.30
2018-01-13T00:07:14.538Z,0.30
2018-01-13T00:09:42.080Z,0.30
2018-01-13T00:12:09.688Z,0.20
2018-01-13T00:14:37.170Z,0.20
2018-01-13T00:17:05.438Z,0.20
2018-01-13T00:19:33.700Z,0.20
2018-01-13T00:22:01.170Z,0.20
2018-01-13T00:24:28.652Z,0.20
2018-01-13T00:26:56.166Z,0.20
2018-01-13T00:29:23.641Z,0.20
2018-01-13T00:31:51.113Z,0.30
2018-01-13T00:34:19.389Z,0.20
2018-01-13T00:36:46.907Z,0.20
2018-01-13T00:39:14.391Z,0.20
2018-01-13T00:41:41.871Z,0.30
2018-01-13T00:44:10.173Z,0.40
2018-01-13T00:46:37.647Z,0.30
2018-01-13T00:49:05.165Z,0.40
2018-01-13T00:51:34.158Z,0.60
2018-01-13T00:54:01.696Z,0.50
2018-01-13T00:56:29.184Z,0.60
2018-01-13T00:58:56.668Z,0.70
2018-01-13T01:01:24.142Z,0.80
2018-01-13T01:03:51.638Z,0.80
2018-01-13T01:06:19.887Z,0.90
2018-01-13T01:08:47.368Z,0.90
2018-01-13T01:11:14.930Z,1.00
2018-01-13T01:13:42.406Z,1.00
2018-01-13T01:16:10.806Z,1.00
2018-01-13T01:18:38.296Z,1.00
2018-01-13T01:21:05.796Z,1.10
2018-01-13T01:23:34.046Z,1.10
2018-01-13T01:26:02.304Z,1.10
2018-01-13T01:28:29.783Z,1.10
2018-01-13T01:30:57.257Z,1.20
2018-01-13T01:33:25.529Z,1.20
2018-01-13T01:35:53.813Z,1.20
2018-01-13T01:38:22.741Z,1.20
2018-01-13T01:40:50.255Z,1.20
2018-01-13T01:43:18.525Z,1.20
2018-01-13T01:45:46.109Z,1.20
2018-01-13T01:48:25.331Z,1.20
2018-01-13T01:50:53.578Z,1.20
2018-01-13T01:53:21.051Z,1.20
2018-01-13T01:55:48.543Z,1.20
2018-01-13T01:58:16.030Z,1.20
2018-01-13T02:00:43.506Z,1.20
2018-01-13T02:03:11.105Z,1.20
2018-01-13T02:05:39.622Z,1.20
2018-01-13T02:08:07.098Z,1.20
2018-01-13T02:10:34.586Z,1.20
2018-01-13T02:13:02.154Z,1.20
2018-01-13T02:15:29.633Z,1.20
2018-01-13T02:17:57.885Z,1.20
2018-01-13T02:20:25.361Z,1.20
2018-01-13T02:22:53.597Z,1.20
2018-01-13T02:25:21.089Z,1.20
2018-01-13T02:27:49.354Z,1.20
2018-01-13T02:30:16.917Z,1.20
2018-01-13T02:32:44.403Z,1.30
2018-01-13T02:35:11.877Z,1.30
2018-01-13T02:37:39.355Z,1.20
2018-01-13T02:40:06.845Z,1.20
2018-01-13T02:42:34.405Z,1.20
2018-01-13T02:45:01.887Z,1.10
2018-01-13T02:47:30.143Z,1.00
2018-01-13T02:49:58.397Z,0.90
2018-01-13T02:52:25.981Z,0.90
2018-01-13T02:54:54.255Z,0.80
2018-01-13T02:57:22.319Z,0.80
2018-01-13T02:59:49.898Z,0.70
2018-01-13T03:02:18.150Z,0.50
2018-01-13T03:04:46.450Z,0.50
2018-01-13T03:07:14.694Z,0.40
2018-01-13T03:09:42.174Z,0.30
2018-01-13T03:12:10.420Z,0.20
2018-01-13T03:14:37.894Z,0.20
2018-01-13T03:17:06.142Z,0.20
2018-01-13T03:19:33.621Z,0.20
2018-01-13T03:22:01.089Z,0.30
2018-01-13T03:24:28.577Z,0.30
2018-01-13T03:26:56.833Z,0.40
2018-01-13T03:29:24.401Z,0.30
2018-01-13T03:31:51.890Z,0.40
2018-01-13T03:34:19.369Z,0.50
2018-01-13T03:36:46.857Z,0.50
2018-01-13T03:39:14.433Z,0.50
2018-01-13T03:41:42.673Z,0.60
2018-01-13T03:44:10.149Z,0.60
2018-01-13T03:46:37.736Z,0.60
2018-01-13T03:49:05.975Z,0.60
2018-01-13T03:51:33.685Z,0.60
2018-01-13T03:54:01.206Z,0.60
2018-01-13T03:56:28.690Z,0.60
2018-01-13T03:58:56.930Z,0.60
2018-01-13T04:01:24.418Z,0.60
2018-01-13T04:03:52.002Z,0.60
2018-01-13T04:06:19.483Z,0.70
2018-01-13T04:08:46.966Z,0.70
2018-01-13T04:11:14.446Z,0.70
2018-01-13T04:13:42.018Z,0.80
2018-01-13T04:16:10.278Z,0.90
2018-01-13T04:18:37.850Z,0.80
2018-01-13T04:21:06.118Z,0.90
2018-01-13T04:23:33.606Z,0.90
2018-01-13T04:26:01.081Z,0.90
2018-01-13T04:28:28.615Z,1.00
2018-01-13T04:30:56.877Z,1.00
2018-01-13T04:33:24.349Z,1.00
2018-01-13T04:35:52.613Z,1.10
2018-01-13T04:38:20.881Z,1.10
2018-01-13T04:40:48.449Z,1.10
2018-01-13T04:43:16.691Z,1.20
2018-01-13T04:45:44.173Z,1.20
2018-01-13T04:48:11.653Z,1.20
2018-01-13T04:50:39.921Z,1.20
2018-01-13T04:53:08.198Z,1.20
2018-01-13T04:55:36.444Z,1.30
2018-01-13T04:58:03.923Z,1.30
2018-01-13T05:00:32.169Z,1.30
2018-01-13T05:02:59.654Z,1.30
2018-01-13T05:05:27.220Z,1.30
2018-01-13T05:07:54.785Z,1.30
2018-01-13T05:10:23.034Z,1.30
2018-01-13T05:12:50.518Z,1.30
2018-01-13T05:15:18.782Z,1.30
2018-01-13T05:17:46.254Z,1.30
2018-01-13T05:20:14.538Z,1.40
2018-01-13T05:22:42.789Z,1.40
2018-01-13T05:25:10.264Z,1.40
2018-01-13T05:27:38.507Z,1.40
2018-01-13T05:30:05.996Z,1.40
2018-01-13T05:32:34.237Z,1.40
2018-01-13T05:35:01.729Z,1.40
2018-01-13T05:37:29.985Z,1.50
2018-01-13T05:39:57.517Z,1.50
2018-01-13T05:42:24.993Z,1.50
2018-01-13T05:44:52.545Z,1.50
2018-01-13T05:47:20.019Z,1.50
2018-01-13T05:49:49.035Z,1.60
2018-01-13T05:52:16.598Z,1.60
2018-01-13T05:54:44.843Z,1.60
2018-01-13T05:57:12.328Z,1.60
2018-01-13T05:59:40.590Z,1.50
2018-01-13T06:02:08.067Z,1.50
2018-01-13T06:04:36.438Z,1.60
2018-01-13T06:07:03.932Z,1.60
2018-01-13T06:09:31.414Z,1.60
2018-01-13T06:11:58.910Z,1.50
2018-01-13T06:14:26.486Z,1.60
2018-01-13T06:16:54.756Z,1.60
2018-01-13T06:19:23.006Z,1.60
2018-01-13T06:21:50.482Z,1.50
2018-01-13T06:24:17.958Z,1.60
2018-01-13T06:26:46.218Z,1.50
2018-01-13T06:29:13.716Z,1.60
2018-01-13T06:31:41.226Z,1.60
2018-01-13T06:34:08.709Z,1.50
2018-01-13T06:36:36.219Z,1.50
2018-01-13T06:39:03.715Z,1.50
2018-01-13T06:41:32.018Z,1.50
2018-01-13T06:43:59.509Z,1.50
2018-01-13T06:46:26.993Z,1.50
2018-01-13T06:48:54.547Z,1.60
2018-01-13T06:51:22.029Z,1.60
2018-01-13T06:53:50.277Z,1.60
2018-01-13T06:56:17.759Z,1.60
2018-01-13T06:58:45.247Z,1.60
2018-01-13T07:01:12.723Z,1.60
2018-01-13T07:03:40.360Z,1.60
2018-01-13T07:06:07.887Z,1.60
2018-01-13T07:08:35.711Z,1.60
2018-01-13T07:11:03.202Z,1.60
2018-01-13T07:13:31.452Z,1.70
2018-01-13T07:15:58.942Z,1.60
2018-01-13T07:18:26.554Z,1.70
2018-01-13T07:20:54.035Z,1.70
2018-01-13T07:23:21.634Z,1.70
2018-01-13T07:25:49.442Z,1.70
2018-01-13T07:28:16.990Z,1.80
2018-01-13T07:30:44.466Z,1.80
2018-01-13T07:33:11.941Z,1.90
2018-01-13T07:35:39.426Z,1.80
2018-01-13T07:38:06.924Z,1.80
2018-01-13T07:40:34.477Z,1.80
2018-01-13T07:43:02.004Z,1.80
2018-01-13T07:45:29.486Z,1.80
2018-01-13T07:47:57.725Z,1.90
2018-01-13T07:50:25.328Z,1.90
2018-01-13T07:52:53.833Z,1.90
2018-01-13T07:55:21.309Z,1.90
2018-01-13T07:57:48.863Z,2.00
2018-01-13T08:00:16.400Z,2.00
2018-01-13T08:02:43.869Z,2.00
2018-01-13T08:05:11.362Z,2.10
2018-01-13T08:07:38.843Z,2.10
2018-01-13T08:10:07.087Z,2.20
2018-01-13T08:12:34.578Z,2.10
2018-01-13T08:15:02.824Z,2.20
2018-01-13T08:17:30.303Z,2.20
2018-01-13T08:19:57.882Z,2.30
2018-01-13T08:22:26.127Z,2.40
2018-01-13T08:24:54.374Z,2.50
2018-01-13T08:27:21.918Z,2.50
2018-01-13T08:29:49.402Z,2.60
2018-01-13T08:32:16.870Z,2.70
2018-01-13T08:34:44.458Z,2.70
2018-01-13T08:37:11.926Z,2.80
2018-01-13T08:39:40.170Z,2.90
2018-01-13T08:42:07.655Z,2.90
2018-01-13T08:44:35.926Z,3.10
2018-01-13T08:47:04.165Z,3.10
2018-01-13T08:49:31.657Z,3.10
2018-01-13T08:51:59.781Z,3.20
2018-01-13T08:54:27.295Z,3.30
2018-01-13T08:56:55.545Z,3.50
2018-01-13T08:59:23.031Z,3.50
2018-01-13T09:01:52.073Z,3.60
2018-01-13T09:04:19.567Z,3.60
2018-01-13T09:06:47.041Z,3.70
2018-01-13T09:09:15.285Z,3.80
2018-01-13T09:11:42.768Z,3.80
2018-01-13T09:14:10.279Z,3.90
2018-01-13T09:16:37.806Z,3.90
2018-01-13T09:19:06.070Z,4.00
2018-01-13T09:21:34.314Z,4.10
2018-01-13T09:24:01.806Z,4.00
2018-01-13T09:26:30.289Z,4.20
2018-01-13T09:28:58.562Z,4.20
2018-01-13T09:31:26.806Z,4.30
2018-01-13T09:33:55.524Z,4.30
2018-01-13T09:36:23.800Z,4.40
2018-01-13T09:38:52.054Z,4.50
2018-01-13T09:41:19.550Z,4.50
2018-01-13T09:43:47.910Z,4.60
2018-01-13T09:46:15.430Z,4.60
2018-01-13T09:48:42.927Z,4.60
2018-01-13T09:51:10.402Z,4.70
2018-01-13T09:53:38.645Z,4.90
2018-01-13T09:56:06.137Z,4.90
2018-01-13T09:58:34.403Z,5.20
2018-01-13T10:01:01.877Z,5.10
2018-01-13T10:03:29.389Z,5.20
2018-01-13T10:05:56.869Z,5.30
2018-01-13T10:08:24.347Z,5.30
2018-01-13T10:10:52.759Z,5.60
2018-01-13T10:13:20.251Z,5.50
2018-01-13T10:15:47.735Z,5.60
2018-01-13T10:18:15.996Z,5.70
2018-01-13T10:20:43.493Z,5.70
2018-01-13T10:23:10.996Z,5.70
2018-01-13T10:25:38.491Z,5.90
2018-01-13T10:28:06.772Z,6.20
2018-01-13T10:30:34.288Z,6.20
2018-01-13T10:33:01.762Z,6.30
2018-01-13T10:35:30.866Z,6.70
2018-01-13T10:37:58.360Z,6.70
2018-01-13T10:40:25.902Z,6.90
2018-01-13T10:42:53.446Z,6.90
2018-01-13T10:45:21.694Z,7.10
2018-01-13T10:47:49.208Z,7.10
2018-01-13T10:50:16.712Z,7.10
2018-01-13T10:52:44.233Z,7.10
2018-01-13T10:55:11.732Z,7.30
2018-01-13T10:57:39.214Z,7.50
2018-01-13T11:00:07.461Z,7.60
2018-01-13T11:02:34.970Z,7.60
2018-01-13T11:05:02.465Z,7.60
2018-01-13T11:07:29.943Z,7.60
2018-01-13T11:09:57.438Z,7.70
2018-01-13T11:12:25.703Z,7.70
2018-01-13T11:14:53.977Z,7.60
2018-01-13T11:17:22.231Z,7.70
2018-01-13T11:19:49.711Z,7.70
2018-01-13T11:22:17.190Z,7.80
2018-01-13T11:24:44.679Z,7.80
2018-01-13T11:27:12.171Z,8.00
2018-01-13T11:29:39.656Z,7.90
2018-01-13T11:32:07.950Z,8.00
2018-01-13T11:34:35.467Z,8.00
2018-01-13T11:37:03.444Z,8.00
2018-01-13T11:39:31.014Z,8.00
2018-01-13T11:42:00.722Z,7.90
2018-01-13T11:44:28.198Z,7.70
2018-01-13T11:46:55.694Z,7.60
2018-01-13T11:49:23.172Z,7.60
2018-01-13T11:51:52.162Z,7.30
2018-01-13T11:54:19.657Z,7.30
2018-01-13T11:56:47.927Z,7.20
2018-01-13T11:59:16.198Z,7.20
2018-01-13T12:01:43.681Z,7.20
2018-01-13T12:04:11.159Z,7.20
2018-01-13T12:06:38.637Z,7.10
2018-01-13T12:09:06.129Z,7.10
2018-01-13T12:11:33.602Z,7.00
2018-01-13T12:14:01.849Z,6.80
2018-01-13T12:16:30.111Z,6.80
2018-01-13T12:18:57.592Z,6.80
2018-01-13T12:21:25.083Z,6.70
2018-01-13T12:23:52.591Z,6.70
2018-01-13T12:26:20.066Z,6.60
2018-01-13T12:28:47.543Z,6.60
2018-01-13T12:31:15.096Z,6.60
2018-01-13T12:33:43.333Z,6.60
2018-01-13T12:36:10.818Z,6.60
2018-01-13T12:38:38.382Z,6.50
2018-01-13T12:41:05.948Z,6.40
2018-01-13T12:43:33.422Z,6.30
2018-01-13T12:46:01.683Z,6.30
2018-01-13T12:48:30.850Z,6.20
2018-01-13T12:50:58.448Z,6.20
2018-01-13T12:53:26.690Z,6.20
2018-01-13T12:55:54.166Z,6.20
2018-01-13T12:58:22.418Z,6.20
2018-01-13T13:00:50.012Z,6.20
2018-01-13T13:03:18.250Z,6.20
2018-01-13T13:05:45.729Z,6.20
2018-01-13T13:08:13.307Z,6.20
2018-01-13T13:10:41.549Z,6.20
2018-01-13T13:13:09.045Z,6.10
2018-01-13T13:15:37.306Z,6.00
2018-01-13T13:18:05.015Z,6.00
2018-01-13T13:20:32.496Z,6.00
2018-01-13T13:22:59.987Z,6.00
2018-01-13T13:25:27.462Z,6.00
2018-01-13T13:27:55.703Z,6.00
2018-01-13T13:30:23.289Z,6.00
2018-01-13T13:32:51.531Z,6.00
2018-01-13T13:35:19.019Z,6.00
2018-01-13T13:37:46.506Z,6.00
2018-01-13T13:40:13.991Z,5.90
2018-01-13T13:42:41.508Z,5.80
2018-01-13T13:45:09.810Z,5.70
2018-01-13T13:47:37.294Z,5.70
2018-01-13T13:50:04.766Z,5.70
2018-01-13T13:52:32.254Z,5.60
2018-01-13T13:55:00.494Z,5.50
2018-01-13T13:57:27.970Z,5.50
2018-01-13T13:59:55.461Z,5.50
2018-01-13T14:02:23.008Z,5.40
2018-01-13T14:04:51.245Z,5.30
2018-01-13T14:07:19.165Z,5.30
2018-01-13T14:09:47.401Z,5.20
2018-01-13T14:12:14.884Z,5.20
2018-01-13T14:14:43.137Z,5.10
2018-01-13T14:17:11.381Z,5.00
2018-01-13T14:19:38.877Z,5.00
2018-01-13T14:22:06.362Z,5.00
2018-01-13T14:24:34.635Z,4.90
2018-01-13T14:27:02.875Z,4.80
2018-01-13T14:29:30.364Z,4.80
2018-01-13T14:31:58.607Z,4.80
2018-01-13T14:34:26.082Z,4.70
2018-01-13T14:36:53.571Z,4.70
2018-01-13T14:39:21.818Z,4.60
2018-01-13T14:41:49.399Z,4.60
2018-01-13T14:44:17.790Z,4.70
2018-01-13T14:46:45.324Z,4.70
2018-01-13T14:49:13.570Z,4.80
2018-01-13T14:51:41.162Z,4.80
2018-01-13T14:54:08.730Z,4.80
2018-01-13T14:56:37.002Z,4.80
2018-01-13T14:59:05.259Z,4.80
2018-01-13T15:01:32.838Z,4.80
2018-01-13T15:04:01.113Z,4.70
2018-01-13T15:06:29.365Z,4.60
2018-01-13T15:08:57.077Z,4.60
2018-01-13T15:11:24.558Z,4.50
2018-01-13T15:13:52.322Z,4.50
2018-01-13T15:16:19.793Z,4.50
2018-01-13T15:18:47.265Z,4.50
2018-01-13T15:21:14.854Z,4.40
2018-01-13T15:23:43.097Z,4.30
2018-01-13T15:26:10.575Z,4.30
2018-01-13T15:28:38.062Z,4.30
2018-01-13T15:31:05.556Z,4.30
2018-01-13T15:33:33.035Z,4.20
2018-01-13T15:36:00.525Z,4.20
2018-01-13T15:38:28.767Z,4.10
2018-01-13T15:40:56.502Z,4.10
2018-01-13T15:43:23.990Z,4.10
2018-01-13T15:45:51.465Z,4.00
2018-01-13T15:48:18.942Z,4.00
2018-01-13T15:50:47.206Z,3.90
2018-01-13T15:53:14.704Z,3.90
2018-01-13T15:55:42.178Z,3.90
2018-01-13T15:58:09.695Z,3.80
2018-01-13T16:00:37.934Z,3.70
2018-01-13T16:03:05.402Z,3.70
2018-01-13T16:05:32.990Z,3.70
2018-01-13T16:08:01.238Z,3.60
2018-01-13T16:10:28.714Z,3.60
2018-01-13T16:12:56.965Z,3.60
2018-01-13T16:15:24.443Z,3.60
2018-01-13T16:17:51.921Z,3.60
2018-01-13T16:20:20.287Z,3.70
2018-01-13T16:22:48.531Z,3.70
2018-01-13T16:25:16.017Z,3.70
2018-01-13T16:27:43.569Z,3.60
2018-01-13T16:30:11.132Z,3.60
2018-01-13T16:32:38.735Z,3.50
2018-01-13T16:35:06.255Z,3.50
2018-01-13T16:37:33.734Z,3.60
2018-01-13T16:40:01.671Z,3.50
2018-01-13T16:42:29.942Z,3.40
2018-01-13T16:44:57.556Z,3.40
2018-01-13T16:47:25.048Z,3.40
2018-01-13T16:49:52.782Z,3.40
2018-01-13T16:52:20.306Z,3.30
2018-01-13T16:54:48.562Z,3.20
2018-01-13T16:57:16.064Z,3.20
2018-01-13T16:59:43.598Z,3.20
2018-01-13T17:02:11.842Z,3.10
2018-01-13T17:04:39.338Z,3.10
2018-01-13T17:07:07.586Z,3.10
2018-01-13T17:09:35.132Z,3.10
2018-01-13T17:12:02.614Z,3.10
2018-01-13T17:14:30.132Z,3.10
2018-01-13T17:16:57.601Z,3.00
2018-01-13T17:19:25.097Z,3.00
2018-01-13T17:21:52.689Z,2.90
2018-01-13T17:24:20.225Z,3.00
2018-01-13T17:26:48.480Z,3.00
2018-01-13T17:29:15.976Z,3.00
2018-01-13T17:31:43.459Z,3.00
2018-01-13T17:34:10.946Z,3.00
2018-01-13T17:36:38.425Z,3.00
2018-01-13T17:39:05.904Z,3.10
2018-01-13T17:41:34.163Z,3.00
2018-01-13T17:44:01.863Z,3.00
2018-01-13T17:46:29.338Z,2.90
2018-01-13T17:48:56.835Z,2.90
2018-01-13T17:51:24.402Z,2.90
2018-01-13T17:53:52.652Z,2.80
2018-01-13T17:56:20.164Z,2.80
2018-01-13T17:58:47.638Z,2.70
2018-01-13T18:01:15.114Z,2.70
2018-01-13T18:03:42.612Z,2.70
2018-01-13T18:06:10.856Z,2.60
2018-01-13T18:08:38.331Z,2.60
2018-01-13T18:11:05.824Z,2.60
2018-01-13T18:13:33.298Z,2.60
2018-01-13T18:16:00.778Z,2.50
2018-01-13T18:18:28.263Z,2.50
2018-01-13T18:20:55.773Z,2.40
2018-01-13T18:23:23.257Z,2.40
2018-01-13T18:25:50.767Z,2.40
2018-01-13T18:28:19.001Z,2.30
2018-01-13T18:30:46.481Z,2.30
2018-01-13T18:33:14.123Z,2.30
2018-01-13T18:35:41.603Z,2.20
2018-01-13T18:38:09.846Z,2.20
2018-01-13T18:40:37.349Z,2.20
2018-01-13T18:43:05.610Z,2.10
2018-01-13T18:45:33.190Z,2.10
2018-01-13T18:48:02.378Z,2.00
2018-01-13T18:50:30.635Z,2.00
2018-01-13T18:52:59.694Z,2.00
2018-01-13T18:55:27.312Z,2.00
2018-01-13T18:57:55.554Z,1.90
2018-01-13T19:00:23.932Z,1.90
2018-01-13T19:02:51.436Z,1.90
2018-01-13T19:05:19.809Z,1.90
2018-01-13T19:07:48.126Z,1.80
2018-01-13T19:10:15.682Z,1.80
2018-01-13T19:12:43.172Z,1.80
2018-01-13T19:15:10.699Z,1.80
2018-01-13T19:17:38.207Z,1.90
2018-01-13T19:20:05.677Z,1.90
2018-01-13T19:22:33.917Z,1.80
2018-01-13T19:25:01.431Z,1.80
2018-01-13T19:27:28.911Z,1.80
2018-01-13T19:29:56.391Z,1.70
2018-01-13T19:32:24.031Z,1.70
2018-01-13T19:34:51.511Z,1.70
2018-01-13T19:37:19.015Z,1.80
2018-01-13T19:39:46.515Z,1.80
2018-01-13T19:42:13.989Z,1.80
2018-01-13T19:44:41.657Z,1.70
2018-01-13T19:47:09.146Z,1.70
2018-01-13T19:49:37.470Z,1.70
2018-01-13T19:52:04.986Z,1.70
2018-01-13T19:54:33.360Z,1.70
2018-01-13T19:57:01.615Z,1.80
2018-01-13T19:59:29.290Z,1.80
2018-01-13T20:01:57.716Z,1.70
2018-01-13T20:04:25.208Z,1.70
2018-01-13T20:06:52.686Z,1.70
2018-01-13T20:09:20.254Z,1.70
2018-01-13T20:11:48.529Z,1.70
2018-01-13T20:14:16.779Z,1.70
2018-01-13T20:16:45.773Z,1.70
2018-01-13T20:19:13.278Z,1.70
2018-01-13T20:21:40.750Z,1.70
2018-01-13T20:24:08.245Z,1.70
2018-01-13T20:26:35.717Z,1.70
2018-01-13T20:29:03.194Z,1.70
2018-01-13T20:31:31.451Z,1.60
2018-01-13T20:33:59.027Z,1.70
2018-01-13T20:36:27.266Z,1.70
2018-01-13T20:38:56.463Z,1.70
2018-01-13T20:41:23.940Z,1.70
2018-01-13T20:43:52.922Z,1.70
2018-01-13T20:46:20.406Z,1.70
2018-01-13T20:48:48.686Z,1.70
2018-01-13T20:51:16.970Z,1.60
2018-01-13T20:53:45.222Z,1.70
2018-01-13T20:56:12.816Z,1.60
2018-01-13T20:58:40.286Z,1.60
2018-01-13T21:01:07.778Z,1.60
2018-01-13T21:03:35.268Z,1.70
2018-01-13T21:06:03.550Z,1.70
2018-01-13T21:08:31.802Z,1.70
2018-01-13T21:10:59.390Z,1.70
2018-01-13T21:13:27.709Z,1.70
2018-01-13T21:15:55.190Z,1.70
2018-01-13T21:18:22.677Z,1.70
2018-01-13T21:20:50.956Z,1.70
2018-01-13T21:23:19.220Z,1.70
2018-01-13T21:25:46.697Z,1.60
2018-01-13T21:28:14.946Z,1.60
2018-01-13T21:30:42.659Z,1.60
2018-01-13T21:33:10.159Z,1.60
2018-01-13T21:35:37.635Z,1.60
2018-01-13T21:38:06.635Z,1.60
2018-01-13T21:40:34.120Z,1.60
2018-01-13T21:43:01.655Z,1.70
2018-01-13T21:45:29.923Z,1.80
2018-01-13T21:47:57.401Z,1.80
2018-01-13T21:50:25.648Z,1.80
2018-01-13T21:52:53.139Z,1.80
2018-01-13T21:55:21.403Z,1.80
2018-01-13T21:57:49.647Z,1.80
2018-01-13T22:00:17.138Z,1.80
2018-01-13T22:02:45.382Z,1.80
2018-01-13T22:05:12.862Z,1.80
2018-01-13T22:07:40.346Z,1.80
2018-01-13T22:10:07.890Z,1.80
2018-01-13T22:12:36.130Z,1.90
2018-01-13T22:15:03.618Z,1.90
2018-01-13T22:17:31.186Z,1.90
2018-01-13T22:19:59.426Z,1.90
2018-01-13T22:22:26.926Z,1.90
2018-01-13T22:24:55.186Z,1.90
2018-01-13T22:27:22.669Z,1.80
2018-01-13T22:29:50.922Z,1.80
2018-01-13T22:32:19.166Z,1.80
2018-01-13T22:34:46.643Z,1.80
2018-01-13T22:37:14.226Z,1.90
2018-01-13T22:39:42.469Z,1.90
2018-01-13T22:42:09.956Z,1.90
2018-01-13T22:44:38.405Z,2.00
2018-01-13T22:47:05.889Z,2.00
2018-01-13T22:49:34.135Z,2.10
2018-01-13T22:52:01.733Z,2.10
2018-01-13T22:54:30.010Z,2.10
2018-01-13T22:56:58.249Z,2.10
2018-01-13T22:59:25.742Z,2.10
2018-01-13T23:01:53.991Z,2.00
2018-01-13T23:04:21.461Z,2.00
2018-01-13T23:06:48.950Z,2.00
2018-01-13T23:09:16.436Z,2.00
2018-01-13T23:11:43.919Z,1.90
2018-01-13T23:14:11.557Z,1.90
2018-01-13T23:16:39.034Z,1.90
2018-01-13T23:19:06.534Z,1.90
2018-01-13T23:21:34.794Z,1.90
2018-01-13T23:24:02.266Z,1.90
2018-01-13T23:26:30.498Z,1.90
2018-01-13T23:28:58.002Z,1.90
2018-01-13T23:31:26.290Z,1.90
2018-01-13T23:33:53.786Z,1.90
2018-01-13T23:36:21.277Z,1.90
2018-01-13T23:38:48.754Z,1.90
2018-01-13T23:41:16.992Z,1.80
2018-01-13T23:43:45.247Z,1.80
2018-01-13T23:46:12.833Z,1.80
2018-01-13T23:48:40.313Z,1.80
2018-01-13T23:51:07.797Z,1.80
2018-01-13T23:53:35.277Z,1.80
2018-01-13T23:56:02.765Z,1.80
2018-01-13T23:58:30.255Z,1.80
